Terminal Aerodrome Forecast
Issued by NWS

Home | Current Version | Previous Version | Text Only | Print | Product List | Glossary On
Versions: 1 2 3 4 5 6 7 8 9 10 11 12 13 14 15
000
FTUS43 KLSX 241700
TAFCPS
TAF
KCPS 241724Z 2418/2518 15012G22KT P6SM BKN150
     FM250200 16014G22KT 4SM -TSRA OVC035CB
     FM250500 22011G20KT 6SM -SHRA BR OVC025
     FM250700 27018G28KT P6SM FEW150
     FM251000 30012KT P6SM SKC=

USA.gov is the U.S. government's official web portal to all federal, state and local government web resources and services.